Time;durP1;ratioP1;P1;durP2;ratioP2;P2;SDS_P1;SDS_P2;PMS_P1;PMS_P2;Temp;Humidity;BMP_temperature;BMP_pressure;BME280_temperature;BME280_humidity;BME280_pressure;Samples;Min_cycle;Max_cycle;Signal;HPM_P1;HPM_P2
2022/03/15 00:00:25;;;;;;;12.93;6.78;;;;;;;;;;5034782;28;20029;-62
2022/03/15 00:02:51;;;;;;;14.07;6.50;;;;;;;;;;5035538;28;20029;-62
2022/03/15 00:05:17;;;;;;;12.18;5.65;;;;;;;;;;5035212;28;20124;-62
2022/03/15 00:07:44;;;;;;;14.82;5.95;;;;;;;;;;5035169;28;20052;-62
2022/03/15 00:10:12;;;;;;;20.35;6.68;;;;;;;;;;5035237;28;20030;-62
2022/03/15 00:12:38;;;;;;;17.05;6.18;;;;;;;;;;5034485;28;20466;-62
2022/03/15 00:15:07;;;;;;;12.90;5.85;;;;;;;;;;5034681;28;20036;-62
2022/03/15 00:17:34;;;;;;;12.65;5.50;;;;;;;;;;5034476;28;20037;-62
2022/03/15 00:20:00;;;;;;;12.05;5.78;;;;;;;;;;5035146;28;20032;-62
2022/03/15 00:22:26;;;;;;;12.20;5.78;;;;;;;;;;5034818;28;20033;-62
2022/03/15 00:24:52;;;;;;;17.92;7.13;;;;;;;;;;5034400;28;20129;-62
2022/03/15 00:27:20;;;;;;;15.50;5.57;;;;;;;;;;5034913;28;20061;-62
2022/03/15 00:29:47;;;;;;;15.45;6.32;;;;;;;;;;5034257;28;20017;-62
2022/03/15 00:32:17;;;;;;;11.57;5.65;;;;;;;;;;5033470;28;20551;-62
2022/03/15 00:34:44;;;;;;;12.77;5.72;;;;;;;;;;5033747;28;20025;-62
2022/03/15 00:37:10;;;;;;;15.68;5.55;;;;;;;;;;5034266;28;20068;-62
2022/03/15 00:39:38;;;;;;;16.05;6.22;;;;;;;;;;5034279;28;20633;-62
2022/03/15 00:42:04;;;;;;;19.58;7.10;;;;;;;;;;5033973;28;20041;-62
2022/03/15 00:44:30;;;;;;;15.30;7.25;;;;;;;;;;5016023;28;20045;-62
2022/03/15 00:46:57;;;;;;;25.67;7.13;;;;;;;;;;5034059;28;20465;-62
2022/03/15 00:49:23;;;;;;;21.30;7.28;;;;;;;;;;5034276;28;20457;-62
2022/03/15 00:51:52;;;;;;;16.92;6.82;;;;;;;;;;5016208;28;20045;-62
2022/03/15 00:54:20;;;;;;;16.33;7.10;;;;;;;;;;5034094;28;20396;-62
2022/03/15 00:56:46;;;;;;;16.17;7.80;;;;;;;;;;5015615;28;20109;-62
2022/03/15 00:59:13;;;;;;;17.00;7.55;;;;;;;;;;5034114;28;20029;-62
2022/03/15 01:01:39;;;;;;;18.27;6.95;;;;;;;;;;5015794;28;20085;-62
2022/03/15 01:04:08;;;;;;;13.82;6.75;;;;;;;;;;5033865;28;20018;-62
2022/03/15 01:06:38;;;;;;;13.73;7.03;;;;;;;;;;5015720;28;20025;-62
2022/03/15 01:09:06;;;;;;;13.13;5.85;;;;;;;;;;5033889;28;20021;-62
2022/03/15 01:11:35;;;;;;;13.93;6.55;;;;;;;;;;5033451;28;20532;-62
2022/03/15 01:14:01;;;;;;;12.20;6.05;;;;;;;;;;5015882;28;20037;-62
2022/03/15 01:16:27;;;;;;;12.20;5.50;;;;;;;;;;5015359;28;20037;-62
2022/03/15 01:18:53;;;;;;;18.75;7.32;;;;;;;;;;5033416;28;20029;-62
2022/03/15 01:21:20;;;;;;;23.45;6.45;;;;;;;;;;5033558;28;20123;-62
2022/03/15 01:23:46;;;;;;;20.67;6.97;;;;;;;;;;5033159;28;20042;-62
2022/03/15 01:26:13;;;;;;;13.48;6.35;;;;;;;;;;5033324;28;20033;-62
2022/03/15 01:28:40;;;;;;;15.27;7.10;;;;;;;;;;5033139;28;20068;-62
2022/03/15 01:31:07;;;;;;;21.52;8.25;;;;;;;;;;5033268;28;20037;-62
2022/03/15 01:33:33;;;;;;;14.85;7.85;;;;;;;;;;5015361;28;20048;-62
2022/03/15 01:36:03;;;;;;;17.58;8.27;;;;;;;;;;5033338;28;20056;-62
2022/03/15 01:38:29;;;;;;;15.52;7.85;;;;;;;;;;5015346;28;20025;-62
2022/03/15 01:40:55;;;;;;;19.10;9.18;;;;;;;;;;5032614;28;20108;-62
2022/03/15 01:43:22;;;;;;;15.43;8.00;;;;;;;;;;5015208;28;20033;-62
2022/03/15 01:45:48;;;;;;;14.93;7.38;;;;;;;;;;5032805;28;20083;-62
2022/03/15 01:48:14;;;;;;;14.50;6.20;;;;;;;;;;5033128;28;20052;-62
2022/03/15 01:50:40;;;;;;;15.35;6.72;;;;;;;;;;5015148;28;20044;-62
2022/03/15 01:53:07;;;;;;;17.38;6.68;;;;;;;;;;5033148;28;20026;-62
2022/03/15 01:55:35;;;;;;;14.63;6.82;;;;;;;;;;5032535;28;20021;-62
2022/03/15 01:58:01;;;;;;;14.55;6.50;;;;;;;;;;5032963;28;20458;-62
2022/03/15 02:00:30;;;;;;;15.18;6.18;;;;;;;;;;5015245;28;20037;-62
2022/03/15 02:02:59;;;;;;;13.00;4.63;;;;;;;;;;5014889;28;20033;-62
2022/03/15 02:05:25;;;;;;;10.63;5.20;;;;;;;;;;5032298;28;20041;-62
2022/03/15 02:07:51;;;;;;;9.57;5.47;;;;;;;;;;5032568;28;20068;-62
2022/03/15 02:10:22;;;;;;;10.45;4.60;;;;;;;;;;5032643;28;20026;-62
2022/03/15 02:12:48;;;;;;;13.40;5.60;;;;;;;;;;5032433;28;20034;-62
2022/03/15 02:15:14;;;;;;;17.27;5.55;;;;;;;;;;5032914;28;20017;-62
2022/03/15 02:17:40;;;;;;;20.38;6.45;;;;;;;;;;5032411;28;20060;-62
2022/03/15 02:20:10;;;;;;;16.83;5.25;;;;;;;;;;5032465;28;20112;-62
2022/03/15 02:22:36;;;;;;;17.67;5.80;;;;;;;;;;5032160;28;20037;-62
2022/03/15 02:25:04;;;;;;;18.35;6.10;;;;;;;;;;5016587;28;20025;-62
2022/03/15 02:27:30;;;;;;;28.95;8.20;;;;;;;;;;5032699;28;20033;-62
2022/03/15 02:29:57;;;;;;;12.45;6.57;;;;;;;;;;5032186;28;20018;-62
2022/03/15 02:32:23;;;;;;;12.93;5.13;;;;;;;;;;5031429;28;20029;-62
2022/03/15 02:34:49;;;;;;;14.68;6.03;;;;;;;;;;5031719;28;20060;-62
2022/03/15 02:37:15;;;;;;;17.08;6.53;;;;;;;;;;5032221;28;20017;-62
2022/03/15 02:39:42;;;;;;;10.52;5.80;;;;;;;;;;5031075;28;20380;-62
2022/03/15 02:42:08;;;;;;;10.70;5.30;;;;;;;;;;5032316;28;20029;-62
2022/03/15 02:44:34;;;;;;;13.20;5.80;;;;;;;;;;5031416;28;20033;-62
2022/03/15 02:47:00;;;;;;;13.82;6.40;;;;;;;;;;5031542;28;20060;-62
2022/03/15 02:49:27;;;;;;;19.65;6.53;;;;;;;;;;5031995;28;20034;-62
2022/03/15 02:51:53;;;;;;;13.35;6.50;;;;;;;;;;5031677;28;20029;-62
2022/03/15 02:54:20;;;;;;;17.67;8.20;;;;;;;;;;5031536;28;20053;-62
2022/03/15 02:56:46;;;;;;;13.90;6.85;;;;;;;;;;5031055;28;20034;-62
2022/03/15 02:59:16;;;;;;;12.32;5.68;;;;;;;;;;5030974;28;20124;-62
2022/03/15 03:01:42;;;;;;;11.60;5.57;;;;;;;;;;5031364;28;20025;-62
2022/03/15 03:04:10;;;;;;;14.63;6.35;;;;;;;;;;5031661;28;20428;-62
2022/03/15 03:06:37;;;;;;;8.55;5.43;;;;;;;;;;5031989;28;20029;-62
2022/03/15 03:09:03;;;;;;;12.88;6.20;;;;;;;;;;5031216;28;20060;-63
2022/03/15 03:11:29;;;;;;;11.82;5.97;;;;;;;;;;5032185;28;20041;-62
2022/03/15 03:13:57;;;;;;;10.82;5.75;;;;;;;;;;5031788;28;20036;-62
2022/03/15 03:16:24;;;;;;;12.82;5.13;;;;;;;;;;5034661;28;20033;-62
2022/03/15 03:18:57;;;;;;;12.65;5.78;;;;;;;;;;5035282;28;20100;-62
2022/03/15 03:21:25;;;;;;;15.43;6.38;;;;;;;;;;5035460;28;20469;-62
2022/03/15 03:23:53;;;;;;;9.57;4.65;;;;;;;;;;5035291;28;20124;-62
2022/03/15 03:26:21;;;;;;;18.00;6.45;;;;;;;;;;5035808;28;20028;-62
2022/03/15 03:28:49;;;;;;;10.65;5.05;;;;;;;;;;5035431;28;20033;-62
2022/03/15 03:31:16;;;;;;;20.85;5.65;;;;;;;;;;5035509;28;20065;-62
2022/03/15 03:33:43;;;;;;;11.75;5.10;;;;;;;;;;5035531;28;20030;-62
2022/03/15 03:36:11;;;;;;;15.02;5.60;;;;;;;;;;5035051;28;20029;-62
2022/03/15 03:38:37;;;;;;;18.92;5.65;;;;;;;;;;5035639;28;20025;-62
2022/03/15 03:41:04;;;;;;;12.25;5.50;;;;;;;;;;5034244;28;20113;-62
2022/03/15 03:43:31;;;;;;;15.63;5.07;;;;;;;;;;5029187;28;20033;-62
2022/03/15 03:45:57;;;;;;;15.50;5.88;;;;;;;;;;5023574;28;20120;-62
2022/03/15 03:48:24;;;;;;;12.93;5.22;;;;;;;;;;5034655;28;20515;-62
2022/03/15 03:50:50;;;;;;;10.13;5.18;;;;;;;;;;5034088;28;20116;-62
2022/03/15 03:53:17;;;;;;;11.02;5.30;;;;;;;;;;5034912;28;20116;-62
2022/03/15 03:55:43;;;;;;;14.52;4.78;;;;;;;;;;5035064;28;20389;-62
2022/03/15 03:58:10;;;;;;;13.68;5.18;;;;;;;;;;5035093;28;20466;-62
2022/03/15 04:00:36;;;;;;;13.30;5.10;;;;;;;;;;5034847;28;20053;-62
2022/03/15 04:03:03;;;;;;;13.50;4.88;;;;;;;;;;5034682;28;20385;-62
2022/03/15 04:05:30;;;;;;;16.45;4.85;;;;;;;;;;5034536;28;20127;-62
2022/03/15 04:07:59;;;;;;;11.00;5.45;;;;;;;;;;5034815;28;20029;-62
2022/03/15 04:10:30;;;;;;;15.00;4.38;;;;;;;;;;5034829;28;20401;-62
2022/03/15 04:12:57;;;;;;;10.30;5.10;;;;;;;;;;5034529;28;20065;-62
2022/03/15 04:15:23;;;;;;;9.15;4.55;;;;;;;;;;5034858;28;20104;-62
2022/03/15 04:17:50;;;;;;;9.48;4.18;;;;;;;;;;5034792;28;20041;-62
2022/03/15 04:20:16;;;;;;;13.52;4.82;;;;;;;;;;5034213;28;20036;-62
2022/03/15 04:22:43;;;;;;;14.35;3.95;;;;;;;;;;5034417;28;20029;-62
2022/03/15 04:25:09;;;;;;;11.25;4.97;;;;;;;;;;5034099;28;20140;-62
2022/03/15 04:27:36;;;;;;;9.80;4.75;;;;;;;;;;5033990;28;20116;-62
2022/03/15 04:30:03;;;;;;;11.63;4.80;;;;;;;;;;5033534;28;20480;-62
2022/03/15 04:32:32;;;;;;;10.75;4.78;;;;;;;;;;5033397;28;20033;-62
2022/03/15 04:34:58;;;;;;;10.13;4.65;;;;;;;;;;5033155;28;20087;-63
2022/03/15 04:37:24;;;;;;;12.77;5.68;;;;;;;;;;5032762;28;20417;-63
2022/03/15 04:39:51;;;;;;;9.32;4.18;;;;;;;;;;5034202;28;20438;-63
2022/03/15 04:42:18;;;;;;;9.82;5.03;;;;;;;;;;5032597;28;20041;-63
2022/03/15 04:44:45;;;;;;;9.23;4.72;;;;;;;;;;5033670;28;20454;-63
2022/03/15 04:47:11;;;;;;;7.80;4.57;;;;;;;;;;5033312;28;20060;-63
2022/03/15 04:49:37;;;;;;;10.75;5.55;;;;;;;;;;5033629;28;20036;-63
2022/03/15 04:52:04;;;;;;;11.68;4.75;;;;;;;;;;5033454;28;20482;-63
2022/03/15 04:54:30;;;;;;;18.23;5.47;;;;;;;;;;5033821;28;20044;-63
2022/03/15 04:56:56;;;;;;;15.07;5.88;;;;;;;;;;5032800;28;20025;-69
2022/03/15 04:59:23;;;;;;;15.68;6.20;;;;;;;;;;5033687;28;20477;-64
2022/03/15 05:01:49;;;;;;;12.10;5.35;;;;;;;;;;5033951;28;20021;-63
2022/03/15 05:04:15;;;;;;;17.58;6.22;;;;;;;;;;5032202;28;20509;-63
2022/03/15 05:06:41;;;;;;;11.13;5.63;;;;;;;;;;5033253;28;20025;-64
2022/03/15 05:09:07;;;;;;;15.13;6.53;;;;;;;;;;5033600;28;20354;-64
2022/03/15 05:11:34;;;;;;;9.65;5.38;;;;;;;;;;5033620;28;20088;-64
2022/03/15 05:14:01;;;;;;;18.00;6.20;;;;;;;;;;5032811;28;20400;-64
2022/03/15 05:16:28;;;;;;;16.20;5.97;;;;;;;;;;5033179;28;20535;-64
2022/03/15 05:18:55;;;;;;;14.63;5.53;;;;;;;;;;5032955;28;20021;-64
2022/03/15 05:21:23;;;;;;;23.30;5.95;;;;;;;;;;5033206;28;20040;-64
2022/03/15 05:23:49;;;;;;;14.30;5.53;;;;;;;;;;5033165;28;20448;-64
2022/03/15 05:26:16;;;;;;;17.73;5.32;;;;;;;;;;5032814;28;20385;-64
2022/03/15 05:28:43;;;;;;;11.35;5.63;;;;;;;;;;5033110;28;20120;-64
2022/03/15 05:31:10;;;;;;;9.98;4.90;;;;;;;;;;5033107;28;20017;-64
2022/03/15 05:33:37;;;;;;;14.18;6.65;;;;;;;;;;5032685;28;20520;-64
2022/03/15 05:36:03;;;;;;;10.15;5.57;;;;;;;;;;5032760;28;20071;-64
2022/03/15 05:38:30;;;;;;;11.75;5.65;;;;;;;;;;5016625;28;20539;-64
2022/03/15 05:40:56;;;;;;;16.67;5.55;;;;;;;;;;5032792;28;20354;-64
2022/03/15 05:43:22;;;;;;;13.23;5.75;;;;;;;;;;5032682;28;20029;-64
2022/03/15 05:45:49;;;;;;;14.85;6.00;;;;;;;;;;5033240;28;20033;-64
2022/03/15 05:48:17;;;;;;;11.90;4.90;;;;;;;;;;5031836;28;20049;-64
2022/03/15 05:50:44;;;;;;;13.05;5.25;;;;;;;;;;5026151;28;20022;-64
2022/03/15 05:53:10;;;;;;;14.48;5.97;;;;;;;;;;5031331;28;20041;-64
2022/03/15 05:55:36;;;;;;;13.23;4.82;;;;;;;;;;5013867;28;20026;-64
2022/03/15 05:58:03;;;;;;;9.30;4.95;;;;;;;;;;5028474;28;20048;-64
2022/03/15 06:00:29;;;;;;;17.25;5.75;;;;;;;;;;5031936;28;20076;-64
2022/03/15 06:02:55;;;;;;;17.75;7.05;;;;;;;;;;5031814;28;20029;-64
2022/03/15 06:05:22;;;;;;;12.80;5.50;;;;;;;;;;5031107;28;20112;-64
2022/03/15 06:07:52;;;;;;;10.00;5.57;;;;;;;;;;5030995;28;20457;-64
2022/03/15 06:10:21;;;;;;;7.43;4.53;;;;;;;;;;5027635;28;20374;-64
2022/03/15 06:12:48;;;;;;;14.80;6.30;;;;;;;;;;5031666;28;20080;-64
2022/03/15 06:15:16;;;;;;;12.43;4.75;;;;;;;;;;5031740;28;20044;-64
2022/03/15 06:17:45;;;;;;;18.92;6.18;;;;;;;;;;5026621;28;20087;-64
2022/03/15 06:20:13;;;;;;;14.52;5.85;;;;;;;;;;5028764;28;20098;-63
2022/03/15 06:22:39;;;;;;;11.32;6.20;;;;;;;;;;5027390;28;20037;-64
2022/03/15 06:25:05;;;;;;;8.15;5.22;;;;;;;;;;5007254;28;20404;-64
2022/03/15 06:27:31;;;;;;;13.13;6.03;;;;;;;;;;5022167;28;20108;-64
2022/03/15 06:29:59;;;;;;;13.57;5.60;;;;;;;;;;5029423;28;20018;-64
2022/03/15 06:32:25;;;;;;;16.30;5.25;;;;;;;;;;5027828;28;20033;-63
2022/03/15 06:34:51;;;;;;;12.50;5.65;;;;;;;;;;5026183;28;20116;-63
2022/03/15 06:37:18;;;;;;;14.88;5.47;;;;;;;;;;5030147;28;20493;-77
2022/03/15 06:39:44;;;;;;;9.95;5.00;;;;;;;;;;5029157;28;20028;-63
2022/03/15 06:42:11;;;;;;;12.10;5.32;;;;;;;;;;5027257;28;20080;-63
2022/03/15 06:44:41;;;;;;;11.57;6.07;;;;;;;;;;5028319;28;20025;-64
2022/03/15 06:47:08;;;;;;;12.38;5.63;;;;;;;;;;5024941;28;20037;-63
2022/03/15 06:49:34;;;;;;;12.13;7.45;;;;;;;;;;5030658;28;20378;-64
2022/03/15 06:52:00;;;;;;;15.52;6.47;;;;;;;;;;5027411;28;20058;-63
2022/03/15 06:54:26;;;;;;;11.05;5.47;;;;;;;;;;5032284;28;20030;-64
2022/03/15 06:56:53;;;;;;;16.52;6.63;;;;;;;;;;5026540;28;20109;-63
2022/03/15 06:59:20;;;;;;;7.35;5.13;;;;;;;;;;5034700;28;20116;-63
2022/03/15 07:01:46;;;;;;;11.95;6.65;;;;;;;;;;5033022;28;20033;-64
2022/03/15 07:04:13;;;;;;;17.20;6.22;;;;;;;;;;5033213;28;20037;-63
2022/03/15 07:06:39;;;;;;;11.73;5.88;;;;;;;;;;5033861;28;20021;-65
2022/03/15 07:09:05;;;;;;;13.18;5.93;;;;;;;;;;5032325;28;20060;-63
2022/03/15 07:11:31;;;;;;;16.98;6.88;;;;;;;;;;5032485;28;20036;-63
2022/03/15 07:13:58;;;;;;;15.80;6.63;;;;;;;;;;5033406;28;20029;-63
2022/03/15 07:16:25;;;;;;;16.00;7.03;;;;;;;;;;5032942;28;20482;-63
2022/03/15 07:18:51;;;;;;;19.33;6.68;;;;;;;;;;5031642;28;20028;-63
2022/03/15 07:21:17;;;;;;;12.80;5.78;;;;;;;;;;5033452;28;20510;-63
2022/03/15 07:23:43;;;;;;;12.75;6.63;;;;;;;;;;5033049;28;20073;-63
2022/03/15 07:26:10;;;;;;;16.10;7.43;;;;;;;;;;5031683;28;20053;-63
2022/03/15 07:28:36;;;;;;;14.50;7.10;;;;;;;;;;5031482;28;20037;-63
2022/03/15 07:31:02;;;;;;;14.38;7.90;;;;;;;;;;5033859;28;20025;-64
2022/03/15 07:33:28;;;;;;;21.27;7.85;;;;;;;;;;5032770;28;20135;-63
2022/03/15 07:35:54;;;;;;;19.67;8.32;;;;;;;;;;5035451;28;20080;-64
2022/03/15 07:38:20;;;;;;;19.27;7.75;;;;;;;;;;5035600;28;20092;-63
2022/03/15 07:40:49;;;;;;;21.33;7.40;;;;;;;;;;5035163;28;20029;-63
2022/03/15 07:43:15;;;;;;;16.35;7.65;;;;;;;;;;5035318;28;20453;-63
2022/03/15 07:45:41;;;;;;;16.20;7.07;;;;;;;;;;5035165;28;20448;-64
2022/03/15 07:48:08;;;;;;;19.08;9.13;;;;;;;;;;5035298;28;20025;-63
2022/03/15 07:50:35;;;;;;;17.25;8.75;;;;;;;;;;5035081;28;20033;-63
2022/03/15 07:53:01;;;;;;;16.35;8.82;;;;;;;;;;5035178;28;20087;-63
2022/03/15 07:55:27;;;;;;;19.75;9.70;;;;;;;;;;5035145;28;20075;-64
2022/03/15 07:57:53;;;;;;;23.33;9.43;;;;;;;;;;5034867;28;20416;-63
2022/03/15 08:00:19;;;;;;;14.98;8.43;;;;;;;;;;5035128;28;20448;-63
2022/03/15 08:02:45;;;;;;;18.05;9.02;;;;;;;;;;5033675;28;20078;-63
2022/03/15 08:05:11;;;;;;;19.58;8.60;;;;;;;;;;5035229;28;20075;-63
2022/03/15 08:07:37;;;;;;;24.45;10.52;;;;;;;;;;5034871;28;20029;-63
2022/03/15 08:10:04;;;;;;;41.67;15.85;;;;;;;;;;5034860;28;20025;-64
2022/03/15 08:12:31;;;;;;;49.15;16.58;;;;;;;;;;5034701;28;20038;-64
2022/03/15 08:14:57;;;;;;;29.88;12.80;;;;;;;;;;5034919;28;20052;-63
2022/03/15 08:17:23;;;;;;;35.53;12.20;;;;;;;;;;5034820;28;20056;-64
2022/03/15 08:19:49;;;;;;;31.80;11.50;;;;;;;;;;5034729;28;20037;-64
2022/03/15 08:22:15;;;;;;;29.98;12.18;;;;;;;;;;5034797;28;20424;-64
2022/03/15 08:24:42;;;;;;;29.08;12.02;;;;;;;;;;5034277;28;20045;-64
2022/03/15 08:27:09;;;;;;;27.48;12.85;;;;;;;;;;5034607;28;20113;-64
2022/03/15 08:29:35;;;;;;;27.38;12.27;;;;;;;;;;5034617;28;20030;-64
2022/03/15 08:32:01;;;;;;;25.27;10.02;;;;;;;;;;5034598;28;20128;-63
2022/03/15 08:34:28;;;;;;;25.60;10.05;;;;;;;;;;5034831;28;20366;-64
2022/03/15 08:36:54;;;;;;;20.30;10.85;;;;;;;;;;5034291;28;20377;-64
2022/03/15 08:39:23;;;;;;;21.73;9.73;;;;;;;;;;5034422;28;20029;-64
2022/03/15 08:41:51;;;;;;;28.48;9.75;;;;;;;;;;5019978;28;20076;-64
2022/03/15 08:44:22;;;;;;;22.65;8.77;;;;;;;;;;5014731;28;20085;-64
2022/03/15 08:46:49;;;;;;;20.73;8.07;;;;;;;;;;5014349;28;20034;-64
2022/03/15 08:49:17;;;;;;;26.45;10.52;;;;;;;;;;5014589;28;20473;-64
2022/03/15 08:51:44;;;;;;;12.88;8.20;;;;;;;;;;5014378;28;20040;-64
2022/03/15 08:54:10;;;;;;;22.35;9.60;;;;;;;;;;5014550;28;20034;-64
2022/03/15 08:56:41;;;;;;;21.05;9.90;;;;;;;;;;5014034;28;20030;-64
2022/03/15 08:59:15;;;;;;;19.98;9.13;;;;;;;;;;5014566;28;20091;-64
2022/03/15 09:01:41;;;;;;;23.23;10.80;;;;;;;;;;5014365;28;20034;-64
2022/03/15 09:04:08;;;;;;;17.13;8.68;;;;;;;;;;5014278;28;20080;-64
2022/03/15 09:06:34;;;;;;;17.92;8.55;;;;;;;;;;5014162;28;20085;-64
2022/03/15 09:09:01;;;;;;;20.08;8.02;;;;;;;;;;5014049;28;20366;-64
2022/03/15 09:11:30;;;;;;;19.65;7.85;;;;;;;;;;5013887;28;20117;-64
2022/03/15 09:13:56;;;;;;;15.43;8.00;;;;;;;;;;5013960;28;20371;-64
2022/03/15 09:16:22;;;;;;;21.23;9.60;;;;;;;;;;5014210;28;20022;-64
2022/03/15 09:18:48;;;;;;;18.80;8.50;;;;;;;;;;5013773;28;20026;-64
2022/03/15 09:21:15;;;;;;;19.10;8.20;;;;;;;;;;5014078;28;20399;-64
2022/03/15 09:23:41;;;;;;;16.92;7.90;;;;;;;;;;5013628;28;20424;-64
2022/03/15 09:26:07;;;;;;;18.55;7.97;;;;;;;;;;5013541;28;20033;-64
2022/03/15 09:28:34;;;;;;;17.85;9.05;;;;;;;;;;5013986;28;20026;-64
2022/03/15 09:31:01;;;;;;;19.45;8.15;;;;;;;;;;5013674;28;20493;-64
2022/03/15 09:33:28;;;;;;;17.83;8.02;;;;;;;;;;5013639;28;20474;-64
2022/03/15 09:35:54;;;;;;;15.30;8.40;;;;;;;;;;5013611;28;20068;-64
2022/03/15 09:38:21;;;;;;;19.02;8.68;;;;;;;;;;5013765;28;20462;-64
2022/03/15 09:40:50;;;;;;;19.50;8.10;;;;;;;;;;5018320;28;20029;-64
2022/03/15 09:43:16;;;;;;;20.73;8.30;;;;;;;;;;5033496;28;20036;-64
2022/03/15 09:45:44;;;;;;;17.70;7.95;;;;;;;;;;5033079;28;20101;-64
2022/03/15 09:48:15;;;;;;;22.73;9.23;;;;;;;;;;5033235;28;20037;-64
2022/03/15 09:50:42;;;;;;;26.58;7.97;;;;;;;;;;5033059;28;20034;-64
2022/03/15 09:53:09;;;;;;;19.70;8.50;;;;;;;;;;5032859;28;20044;-64
2022/03/15 09:55:36;;;;;;;19.45;7.53;;;;;;;;;;5033134;28;20025;-64
2022/03/15 09:58:03;;;;;;;15.27;6.80;;;;;;;;;;5032978;28;20061;-64
2022/03/15 10:00:30;;;;;;;14.75;6.07;;;;;;;;;;5033279;28;20079;-64
2022/03/15 10:02:56;;;;;;;18.67;5.80;;;;;;;;;;5033003;28;20457;-64
2022/03/15 10:05:23;;;;;;;11.88;5.78;;;;;;;;;;5032949;28;20079;-64
2022/03/15 10:07:49;;;;;;;18.35;6.60;;;;;;;;;;5032561;28;20018;-64
2022/03/15 10:10:16;;;;;;;12.52;6.43;;;;;;;;;;5015413;28;20043;-64
2022/03/15 10:12:42;;;;;;;10.30;5.65;;;;;;;;;;5032588;28;20524;-61
2022/03/15 10:15:16;;;;;;;14.75;5.97;;;;;;;;;;5033116;28;20434;-61
2022/03/15 10:17:49;;;;;;;15.30;7.50;;;;;;;;;;5032918;28;20029;-61
2022/03/15 10:20:18;;;;;;;10.27;5.65;;;;;;;;;;5032707;28;20369;-61
2022/03/15 10:22:51;;;;;;;14.27;6.05;;;;;;;;;;5032224;28;20087;-61
2022/03/15 10:25:20;;;;;;;17.10;6.47;;;;;;;;;;5032024;28;20083;-61
2022/03/15 10:27:50;;;;;;;16.60;6.38;;;;;;;;;;5032625;28;20021;-61
2022/03/15 10:30:16;;;;;;;14.77;5.78;;;;;;;;;;5032772;28;20113;-62
2022/03/15 10:32:42;;;;;;;12.88;5.85;;;;;;;;;;5032483;28;20033;-62
2022/03/15 10:35:09;;;;;;;12.93;5.53;;;;;;;;;;5032554;28;20405;-61
2022/03/15 10:37:35;;;;;;;10.18;5.22;;;;;;;;;;5032376;28;20021;-61
2022/03/15 10:40:02;;;;;;;8.70;5.43;;;;;;;;;;5032406;28;20084;-61
2022/03/15 10:42:28;;;;;;;9.85;4.97;;;;;;;;;;5032495;28;20052;-61
2022/03/15 10:44:56;;;;;;;14.38;5.95;;;;;;;;;;5032532;28;20164;-61
2022/03/15 10:47:22;;;;;;;9.77;5.00;;;;;;;;;;5032590;28;20033;-61
2022/03/15 10:49:56;;;;;;;9.45;5.10;;;;;;;;;;5032619;28;20396;-62
2022/03/15 10:52:34;;;;;;;12.40;5.20;;;;;;;;;;5032309;28;20164;-62
2022/03/15 10:55:18;;;;;;;10.95;5.18;;;;;;;;;;5032229;28;20481;-62
2022/03/15 10:57:48;;;;;;;9.75;4.93;;;;;;;;;;5032354;28;20120;-61
2022/03/15 11:00:15;;;;;;;11.55;4.68;;;;;;;;;;5032514;28;20362;-61
2022/03/15 11:02:45;;;;;;;12.65;5.43;;;;;;;;;;5032541;28;20032;-61
2022/03/15 11:05:11;;;;;;;12.85;5.20;;;;;;;;;;5032553;28;20025;-62
2022/03/15 11:07:41;;;;;;;12.27;5.25;;;;;;;;;;5032004;28;20029;-61
2022/03/15 11:10:08;;;;;;;13.18;4.82;;;;;;;;;;5032314;28;20045;-61
2022/03/15 11:12:35;;;;;;;10.88;4.88;;;;;;;;;;5032490;28;20028;-61
2022/03/15 11:15:01;;;;;;;6.18;3.95;;;;;;;;;;5031965;28;20025;-61
2022/03/15 11:17:27;;;;;;;9.68;4.28;;;;;;;;;;5032350;28;20024;-61
2022/03/15 11:19:58;;;;;;;9.40;4.18;;;;;;;;;;5031961;28;20114;-62
2022/03/15 11:22:26;;;;;;;11.73;4.32;;;;;;;;;;5032387;28;20026;-61
2022/03/15 11:25:28;;;;;;;12.48;4.85;;;;;;;;;;5030105;28;20045;-61
2022/03/15 11:27:55;;;;;;;8.82;3.97;;;;;;;;;;4937575;29;20031;-61
2022/03/15 11:30:21;;;;;;;11.55;4.50;;;;;;;;;;4940860;29;20138;-61
2022/03/15 11:32:49;;;;;;;9.00;4.57;;;;;;;;;;4945121;29;20035;-62
2022/03/15 11:35:22;;;;;;;6.43;3.85;;;;;;;;;;4933108;29;20074;-61
2022/03/15 11:37:48;;;;;;;10.05;4.30;;;;;;;;;;4936391;29;20126;-62
2022/03/15 11:40:18;;;;;;;9.10;3.58;;;;;;;;;;4939756;29;20118;-62
2022/03/15 11:42:46;;;;;;;6.63;3.28;;;;;;;;;;4938057;29;20099;-61
2022/03/15 11:45:17;;;;;;;7.18;3.58;;;;;;;;;;4955614;29;20067;-62
2022/03/15 11:47:47;;;;;;;8.07;2.78;;;;;;;;;;4955238;29;20046;-62
2022/03/15 11:50:32;;;;;;;10.18;3.40;;;;;;;;;;4953590;29;20077;-62
2022/03/15 11:53:00;;;;;;;11.43;2.95;;;;;;;;;;4939600;29;20094;-61
2022/03/15 11:55:35;;;;;;;5.68;2.95;;;;;;;;;;4924976;29;20055;-62
2022/03/15 11:58:04;;;;;;;6.97;2.72;;;;;;;;;;4923433;29;20036;-62
2022/03/15 12:00:30;;;;;;;6.72;3.08;;;;;;;;;;4922374;29;20039;-62
2022/03/15 12:03:02;;;;;;;10.68;2.97;;;;;;;;;;5028190;28;20043;-62
2022/03/15 12:05:30;;;;;;;12.05;2.60;;;;;;;;;;5033795;28;20108;-62
2022/03/15 12:08:12;;;;;;;9.02;2.50;;;;;;;;;;5033485;28;20033;-62
2022/03/15 12:10:43;;;;;;;7.32;2.55;;;;;;;;;;5032513;28;20045;-62
2022/03/15 12:13:13;;;;;;;4.88;2.65;;;;;;;;;;5032183;28;20071;-62
2022/03/15 12:15:41;;;;;;;5.88;2.33;;;;;;;;;;5032343;28;20592;-62
2022/03/15 12:21:02;;;;;;;13.63;2.55;;;;;;;;;;5029562;28;20021;-62
2022/03/15 12:23:30;;;;;;;6.18;2.78;;;;;;;;;;5030150;28;20034;-62
2022/03/15 12:25:57;;;;;;;7.10;2.50;;;;;;;;;;5031131;28;20048;-62
2022/03/15 12:28:28;;;;;;;8.48;2.60;;;;;;;;;;5028222;28;20393;-62
2022/03/15 12:30:54;;;;;;;6.55;2.67;;;;;;;;;;5033475;28;20036;-62
2022/03/15 12:33:28;;;;;;;6.40;2.85;;;;;;;;;;5032811;28;20453;-61
2022/03/15 12:36:03;;;;;;;5.40;2.15;;;;;;;;;;5034459;28;20394;-61
2022/03/15 12:38:33;;;;;;;6.47;2.30;;;;;;;;;;5034145;28;20037;-62
2022/03/15 12:41:03;;;;;;;5.90;2.80;;;;;;;;;;5021645;28;20120;-61
2022/03/15 12:43:30;;;;;;;8.55;3.10;;;;;;;;;;5014109;28;20034;-61
2022/03/15 12:45:59;;;;;;;7.60;2.55;;;;;;;;;;5014036;28;20041;-61
2022/03/15 12:48:43;;;;;;;4.32;2.50;;;;;;;;;;5013659;28;20030;-61
2022/03/15 12:51:17;;;;;;;5.40;2.30;;;;;;;;;;5014573;28;20038;-61
2022/03/15 12:53:48;;;;;;;6.60;2.78;;;;;;;;;;5014476;28;20045;-61
2022/03/15 12:56:14;;;;;;;8.88;2.75;;;;;;;;;;5014374;28;20528;-61
2022/03/15 12:58:41;;;;;;;6.68;2.38;;;;;;;;;;5014550;28;20029;-61
2022/03/15 13:01:13;;;;;;;7.53;2.35;;;;;;;;;;5014404;28;20018;-62
2022/03/15 13:03:44;;;;;;;7.18;2.97;;;;;;;;;;5014205;28;20033;-62
2022/03/15 13:06:17;;;;;;;4.90;2.60;;;;;;;;;;5013978;28;20489;-62
2022/03/15 13:08:56;;;;;;;6.22;2.40;;;;;;;;;;5014161;28;20121;-62
2022/03/15 13:11:24;;;;;;;4.43;2.38;;;;;;;;;;5014109;28;20033;-62
2022/03/15 13:13:50;;;;;;;8.00;2.97;;;;;;;;;;5014211;28;20026;-62
2022/03/15 13:16:21;;;;;;;6.38;2.17;;;;;;;;;;5013711;28;20034;-62
2022/03/15 13:18:48;;;;;;;6.60;2.42;;;;;;;;;;5014127;28;20026;-62
2022/03/15 13:21:14;;;;;;;7.03;2.30;;;;;;;;;;5013811;28;20117;-61
2022/03/15 13:23:48;;;;;;;4.90;2.38;;;;;;;;;;5013914;28;20092;-62
2022/03/15 13:26:16;;;;;;;6.72;2.53;;;;;;;;;;5013698;28;20038;-61
2022/03/15 13:28:44;;;;;;;6.90;2.55;;;;;;;;;;5014185;28;20164;-61
2022/03/15 13:31:13;;;;;;;4.20;2.40;;;;;;;;;;5013484;28;20390;-62
2022/03/15 13:33:44;;;;;;;5.88;2.60;;;;;;;;;;5013833;28;20070;-62
2022/03/15 13:36:11;;;;;;;5.85;1.95;;;;;;;;;;5013491;28;20034;-61
2022/03/15 13:38:45;;;;;;;5.72;2.10;;;;;;;;;;5013935;28;20164;-61
2022/03/15 13:41:13;;;;;;;4.55;1.88;;;;;;;;;;5022058;28;20090;-62
2022/03/15 13:43:41;;;;;;;6.82;2.17;;;;;;;;;;5033610;28;20095;-62
2022/03/15 13:46:08;;;;;;;7.43;2.78;;;;;;;;;;5032933;28;20401;-62
2022/03/15 13:48:38;;;;;;;4.72;2.25;;;;;;;;;;5033121;28;20044;-62
2022/03/15 13:51:07;;;;;;;8.73;2.35;;;;;;;;;;5033276;28;20138;-62
2022/03/15 13:53:37;;;;;;;6.43;2.40;;;;;;;;;;5033275;28;20041;-62
2022/03/15 13:56:07;;;;;;;5.25;2.40;;;;;;;;;;5033228;28;20033;-62
2022/03/15 13:58:34;;;;;;;6.63;1.83;;;;;;;;;;5033082;28;20028;-62
2022/03/15 14:01:07;;;;;;;4.18;2.20;;;;;;;;;;5032092;28;20038;-61
2022/03/15 14:03:34;;;;;;;4.40;2.28;;;;;;;;;;5033242;28;20029;-61
2022/03/15 14:06:04;;;;;;;5.07;1.92;;;;;;;;;;5033186;28;20045;-61
2022/03/15 14:08:41;;;;;;;3.60;1.88;;;;;;;;;;5033050;28;20033;-61
2022/03/15 14:11:12;;;;;;;8.77;2.47;;;;;;;;;;5032791;28;20029;-61
2022/03/15 14:13:42;;;;;;;4.93;1.88;;;;;;;;;;5032935;28;20041;-62
2022/03/15 14:16:14;;;;;;;5.85;1.90;;;;;;;;;;5032360;28;20033;-61
2022/03/15 14:18:51;;;;;;;5.25;2.25;;;;;;;;;;5032938;28;20091;-61
2022/03/15 14:21:21;;;;;;;7.57;1.92;;;;;;;;;;5032703;28;20108;-61
2022/03/15 14:23:55;;;;;;;10.35;2.35;;;;;;;;;;5032564;28;20069;-61
2022/03/15 14:26:29;;;;;;;13.52;5.75;;;;;;;;;;5032659;28;20097;-61
2022/03/15 14:29:06;;;;;;;16.00;6.50;;;;;;;;;;5032344;28;20529;-61
2022/03/15 14:31:37;;;;;;;14.02;7.00;;;;;;;;;;5031279;28;20104;-61
2022/03/15 14:34:07;;;;;;;13.98;7.35;;;;;;;;;;5031361;28;20120;-61
2022/03/15 14:36:34;;;;;;;13.70;8.15;;;;;;;;;;5032723;28;20440;-61
2022/03/15 14:39:18;;;;;;;19.42;8.70;;;;;;;;;;5032724;28;20127;-61